createdAt,value
2022-12-20T00:02:26.911Z,84.16
2022-12-20T00:05:28.755Z,83.70
2022-12-20T00:08:31.421Z,83.99
2022-12-20T00:11:33.482Z,83.73
2022-12-20T00:14:35.398Z,84.10
2022-12-20T00:17:37.435Z,84.10
2022-12-20T00:20:39.456Z,83.92
2022-12-20T00:23:42.029Z,84.06
2022-12-20T00:26:43.990Z,84.10
2022-12-20T00:29:45.972Z,83.56
2022-12-20T00:32:47.895Z,83.76
2022-12-20T00:35:49.790Z,83.83
2022-12-20T00:38:53.677Z,83.67
2022-12-20T00:41:57.670Z,83.75
2022-12-20T00:44:59.441Z,83.20
2022-12-20T00:48:01.333Z,83.42
2022-12-20T00:51:09.179Z,83.09
2022-12-20T00:54:11.106Z,82.94
2022-12-20T00:57:12.888Z,83.23
2022-12-20T01:00:15.419Z,83.18
2022-12-20T01:03:17.523Z,83.12
2022-12-20T01:06:20.992Z,82.81
2022-12-20T01:09:22.878Z,82.80
2022-12-20T01:12:24.707Z,82.97
2022-12-20T01:15:27.520Z,82.72
2022-12-20T01:18:29.350Z,83.25
2022-12-20T01:21:31.510Z,82.45
2022-12-20T01:24:33.399Z,82.94
2022-12-20T01:27:35.291Z,82.83
2022-12-20T01:30:41.084Z,82.28
2022-12-20T01:33:43.888Z,82.76
2022-12-20T01:36:45.773Z,82.69
2022-12-20T01:39:47.643Z,82.74
2022-12-20T01:42:49.990Z,82.76
2022-12-20T01:45:52.674Z,83.22
2022-12-20T01:49:19.617Z,83.62
2022-12-20T01:52:47.996Z,83.39
2022-12-20T01:55:50.304Z,83.43
2022-12-20T01:58:54.302Z,82.99
2022-12-20T02:02:02.697Z,83.05
2022-12-20T02:05:05.313Z,82.98
2022-12-20T02:08:08.492Z,82.81
2022-12-20T02:11:12.794Z,82.70
2022-12-20T02:14:52.156Z,82.48
2022-12-20T02:18:15.115Z,82.72
2022-12-20T02:21:23.586Z,82.41
2022-12-20T02:25:01.331Z,82.32
2022-12-20T02:28:19.624Z,81.79
2022-12-20T02:31:29.919Z,81.82
2022-12-20T02:34:35.659Z,81.38
2022-12-20T02:37:46.435Z,81.59
2022-12-20T02:40:51.677Z,81.18
2022-12-20T02:44:18.396Z,81.23
2022-12-20T02:47:32.016Z,81.25
2022-12-20T02:50:44.632Z,81.54
2022-12-20T02:53:47.330Z,81.66
2022-12-20T02:57:22.834Z,81.22
2022-12-20T03:00:25.054Z,81.58
2022-12-20T03:03:27.985Z,81.31
2022-12-20T03:06:30.893Z,80.85
2022-12-20T03:09:36.791Z,80.84
2022-12-20T03:12:38.824Z,80.39
2022-12-20T03:15:40.606Z,80.26
2022-12-20T03:18:42.800Z,80.57
2022-12-20T03:21:44.652Z,80.67
2022-12-20T03:24:48.268Z,80.04
2022-12-20T03:27:50.187Z,79.98
2022-12-20T03:30:52.928Z,80.06
2022-12-20T03:33:55.125Z,80.49
2022-12-20T03:36:58.046Z,80.58
2022-12-20T03:40:00.199Z,80.11
2022-12-20T03:43:02.163Z,79.92
2022-12-20T03:46:04.087Z,79.97
2022-12-20T03:49:09.868Z,80.21
2022-12-20T03:52:19.703Z,79.98
2022-12-20T03:55:22.550Z,79.92
2022-12-20T03:58:25.557Z,79.31
2022-12-20T04:01:29.470Z,79.37
2022-12-20T04:04:31.640Z,79.67
2022-12-20T04:07:33.894Z,79.86
2022-12-20T04:10:58.474Z,80.08
2022-12-20T04:14:04.119Z,78.93
2022-12-20T04:17:05.983Z,78.06
2022-12-20T04:20:19.390Z,77.41
2022-12-20T04:23:27.849Z,77.80
2022-12-20T04:26:29.807Z,78.04
2022-12-20T04:29:34.875Z,78.63
2022-12-20T04:32:39.081Z,78.83
2022-12-20T04:35:42.480Z,78.34
2022-12-20T04:38:44.460Z,78.78
2022-12-20T04:41:46.571Z,78.56
2022-12-20T04:44:49.211Z,78.53
2022-12-20T04:47:56.217Z,78.43
2022-12-20T04:51:03.603Z,78.19
2022-12-20T04:54:06.944Z,78.73
2022-12-20T04:57:20.624Z,79.27
2022-12-20T05:00:22.653Z,79.45
2022-12-20T05:03:32.523Z,79.15
2022-12-20T05:06:34.370Z,79.08
2022-12-20T05:09:36.598Z,78.89
2022-12-20T05:12:38.468Z,78.38
2022-12-20T05:15:41.947Z,78.51
2022-12-20T05:18:48.934Z,78.62
2022-12-20T05:22:10.280Z,78.89
2022-12-20T05:25:34.133Z,78.81
2022-12-20T05:28:40.535Z,78.83
2022-12-20T05:31:42.528Z,78.59
2022-12-20T05:34:44.801Z,78.21
2022-12-20T05:37:47.244Z,78.88
2022-12-20T05:40:53.064Z,78.92
2022-12-20T05:43:55.051Z,79.47
2022-12-20T05:46:57.562Z,79.61
2022-12-20T05:50:04.677Z,79.81
2022-12-20T05:53:13.200Z,80.00
2022-12-20T05:56:21.077Z,79.65
2022-12-20T05:59:23.031Z,79.88
2022-12-20T06:02:25.067Z,80.05
2022-12-20T06:05:39.405Z,80.00
2022-12-20T06:08:41.267Z,80.29
2022-12-20T06:11:47.649Z,80.59
2022-12-20T06:14:51.246Z,80.47
2022-12-20T06:17:54.091Z,80.91
2022-12-20T06:20:56.581Z,80.69
2022-12-20T06:23:59.444Z,80.98
2022-12-20T06:27:02.928Z,80.84
2022-12-20T06:30:06.109Z,80.71
2022-12-20T06:33:20.259Z,80.97
2022-12-20T06:36:22.461Z,80.97
2022-12-20T06:39:27.238Z,81.55
2022-12-20T06:42:38.034Z,81.76
2022-12-20T06:45:42.138Z,81.76
2022-12-20T06:48:45.906Z,81.76
2022-12-20T06:51:48.697Z,82.77
2022-12-20T06:54:53.296Z,83.19
2022-12-20T06:57:56.869Z,83.05
2022-12-20T07:01:00.902Z,82.64
2022-12-20T07:04:02.880Z,82.54
2022-12-20T07:07:05.104Z,83.88
2022-12-20T07:10:07.860Z,83.52
2022-12-20T07:13:09.698Z,84.33
2022-12-20T07:16:11.570Z,84.09
2022-12-20T07:19:14.958Z,83.15
2022-12-20T07:22:16.947Z,83.59
2022-12-20T07:25:18.783Z,83.91
2022-12-20T07:28:20.582Z,83.43
2022-12-20T07:31:22.459Z,82.95
2022-12-20T07:34:24.335Z,82.20
2022-12-20T07:37:29.971Z,82.42
2022-12-20T07:40:31.821Z,82.24
2022-12-20T07:43:33.759Z,82.33
2022-12-20T07:46:35.622Z,81.71
2022-12-20T07:49:37.585Z,81.22
2022-12-20T07:52:42.122Z,80.73
2022-12-20T07:55:44.075Z,80.53
2022-12-20T07:58:46.091Z,79.86
2022-12-20T08:01:48.604Z,79.41
2022-12-20T08:04:50.859Z,79.45
2022-12-20T08:07:58.906Z,77.49
2022-12-20T08:11:02.704Z,76.98
2022-12-20T08:14:06.893Z,75.98
2022-12-20T08:17:09.149Z,76.17
2022-12-20T08:20:11.415Z,75.89
2022-12-20T08:23:13.216Z,74.80
2022-12-20T08:26:15.065Z,75.12
2022-12-20T08:29:16.887Z,74.54
2022-12-20T08:32:18.674Z,74.13
2022-12-20T08:35:20.494Z,73.43
2022-12-20T08:38:22.277Z,73.54
2022-12-20T08:41:25.339Z,71.94
2022-12-20T08:44:27.192Z,72.22
2022-12-20T08:47:29.936Z,72.11
2022-12-20T08:50:31.715Z,72.51
2022-12-20T08:53:34.821Z,72.86
2022-12-20T08:56:37.675Z,73.32
2022-12-20T08:59:39.684Z,72.86
2022-12-20T09:02:42.176Z,73.38
2022-12-20T09:05:46.161Z,73.47
2022-12-20T09:08:48.528Z,72.96
2022-12-20T09:11:50.380Z,72.34
2022-12-20T09:14:52.217Z,72.63
2022-12-20T09:17:55.632Z,72.48
2022-12-20T09:21:04.671Z,71.87
2022-12-20T09:24:07.067Z,72.15
2022-12-20T09:27:08.911Z,71.57
2022-12-20T09:30:11.107Z,71.38
2022-12-20T09:33:12.903Z,71.05
2022-12-20T09:36:17.537Z,70.57
2022-12-20T09:39:19.421Z,70.74
2022-12-20T09:42:24.594Z,70.00
2022-12-20T09:45:29.645Z,70.40
2022-12-20T09:48:37.962Z,70.11
2022-12-20T09:51:51.773Z,69.71
2022-12-20T09:55:18.473Z,69.44
2022-12-20T09:58:41.703Z,69.74
2022-12-20T10:01:46.379Z,69.11
2022-12-20T10:04:48.441Z,69.31
2022-12-20T10:07:59.464Z,69.48
2022-12-20T10:11:10.277Z,69.16
2022-12-20T10:15:02.527Z,69.48
2022-12-20T10:18:06.923Z,69.33
2022-12-20T10:21:31.612Z,69.96
2022-12-20T10:24:34.984Z,69.88
2022-12-20T10:27:42.012Z,68.99
2022-12-20T10:30:44.856Z,68.81
2022-12-20T10:33:46.788Z,68.68
2022-12-20T10:36:50.287Z,68.27
2022-12-20T10:39:52.897Z,68.47
2022-12-20T10:42:55.300Z,67.70
2022-12-20T10:46:06.615Z,68.05
2022-12-20T10:49:39.570Z,67.88
2022-12-20T10:52:42.167Z,67.62
2022-12-20T10:55:44.133Z,68.19
2022-12-20T10:58:57.900Z,68.20
2022-12-20T11:01:59.864Z,67.19
2022-12-20T11:05:24.266Z,67.24
2022-12-20T11:12:13.488Z,66.69
2022-12-20T14:21:05.620Z,73.73
2022-12-20T14:24:15.935Z,73.49
2022-12-20T14:27:17.883Z,73.35
2022-12-20T14:30:46.291Z,71.64
2022-12-20T14:33:48.517Z,72.07
2022-12-20T14:36:51.410Z,71.28
2022-12-20T15:02:43.528Z,68.01
2022-12-20T15:05:51.193Z,67.93
2022-12-20T15:08:53.030Z,67.59
2022-12-20T15:11:57.699Z,66.96
2022-12-20T15:15:17.639Z,66.48
2022-12-20T15:18:22.638Z,66.67
2022-12-20T15:21:45.190Z,65.48
2022-12-20T15:24:47.157Z,65.99
2022-12-20T15:27:49.061Z,65.44
2022-12-20T15:30:52.247Z,65.44
2022-12-20T15:33:54.853Z,65.84
2022-12-20T15:37:00.006Z,65.30
2022-12-20T15:40:01.941Z,64.49
2022-12-20T15:43:03.830Z,64.59
2022-12-20T15:46:05.914Z,64.38
2022-12-20T15:49:22.421Z,64.59
2022-12-20T15:52:24.617Z,63.97
2022-12-20T15:55:26.558Z,63.78
2022-12-20T15:58:28.482Z,64.00
2022-12-20T16:01:40.268Z,63.60
2022-12-20T16:04:43.003Z,63.74
2022-12-20T16:07:44.877Z,63.57
2022-12-20T16:10:48.363Z,63.24
2022-12-20T16:13:51.142Z,63.24
2022-12-20T16:16:53.008Z,63.28
2022-12-20T16:19:55.550Z,63.61
2022-12-20T16:22:57.884Z,63.26
2022-12-20T16:26:00.063Z,62.57
2022-12-20T16:29:01.902Z,62.58
2022-12-20T16:32:08.112Z,62.56
2022-12-20T16:35:39.424Z,61.48
2022-12-20T16:38:41.325Z,61.86
2022-12-20T16:41:44.918Z,61.38
2022-12-20T16:44:52.069Z,61.62
2022-12-20T16:47:54.613Z,61.44
2022-12-20T16:50:57.529Z,61.51
2022-12-20T16:54:19.469Z,61.48
2022-12-20T16:57:22.053Z,61.39
2022-12-20T17:00:27.102Z,61.90
2022-12-20T17:03:30.411Z,61.83
2022-12-20T17:06:33.379Z,61.84
2022-12-20T17:12:55.895Z,61.62
2022-12-20T17:15:57.800Z,61.52
2022-12-20T17:19:00.226Z,60.37
2022-12-20T17:25:30.739Z,60.92
2022-12-20T17:28:32.508Z,60.42
2022-12-20T17:31:39.176Z,60.61
2022-12-20T17:34:41.199Z,60.59
2022-12-20T17:37:43.044Z,60.37
2022-12-20T17:40:45.075Z,60.04
2022-12-20T17:43:47.048Z,59.86
2022-12-20T17:46:48.954Z,59.85
2022-12-20T17:49:50.813Z,59.82
2022-12-20T17:52:54.470Z,59.93
2022-12-20T17:55:57.139Z,60.04
2022-12-20T17:59:00.966Z,59.73
2022-12-20T18:02:03.017Z,59.79
2022-12-20T18:05:05.707Z,59.50
2022-12-20T18:08:09.811Z,59.81
2022-12-20T18:11:11.735Z,59.77
2022-12-20T18:14:14.729Z,59.88
2022-12-20T18:17:17.640Z,59.39
2022-12-20T18:20:19.608Z,59.38
2022-12-20T18:23:21.491Z,59.17
2022-12-20T18:26:31.558Z,59.42
2022-12-20T18:29:33.463Z,59.36
2022-12-20T18:32:35.717Z,59.66
2022-12-20T18:35:37.581Z,59.36
2022-12-20T18:38:41.706Z,59.34
2022-12-20T18:41:44.337Z,59.45
2022-12-20T18:44:46.248Z,59.75
2022-12-20T18:47:48.080Z,59.18
2022-12-20T18:50:49.938Z,59.40
2022-12-20T18:53:54.795Z,59.91
2022-12-20T18:56:57.447Z,59.36
2022-12-20T18:59:59.480Z,59.11
2022-12-20T19:03:02.373Z,58.77
2022-12-20T19:06:04.726Z,58.55
2022-12-20T19:09:09.667Z,57.19
2022-12-20T19:12:11.502Z,57.65
2022-12-20T19:15:13.349Z,57.29
2022-12-20T19:18:16.103Z,57.35
2022-12-20T19:21:21.179Z,56.33
2022-12-20T19:24:25.842Z,57.11
2022-12-20T19:27:27.732Z,57.05
2022-12-20T19:30:30.200Z,57.36
2022-12-20T19:33:32.274Z,57.13
2022-12-20T19:36:44.067Z,57.40
2022-12-20T19:39:45.902Z,57.44
2022-12-20T19:42:47.753Z,57.76
2022-12-20T19:45:49.685Z,57.58
2022-12-20T19:48:53.725Z,58.14
2022-12-20T19:51:55.618Z,58.29
2022-12-20T19:54:57.663Z,58.28
2022-12-20T19:57:59.547Z,58.53
2022-12-20T20:01:03.738Z,58.38
2022-12-20T20:04:06.306Z,58.58
2022-12-20T20:07:08.691Z,58.94
2022-12-20T20:10:10.659Z,58.95
2022-12-20T20:13:12.597Z,58.89
2022-12-20T20:16:21.571Z,59.22
2022-12-20T20:19:24.323Z,59.21
2022-12-20T20:22:26.132Z,59.24
2022-12-20T20:25:28.010Z,59.30
2022-12-20T20:28:33.094Z,59.77
2022-12-20T20:31:37.863Z,59.98
2022-12-20T20:34:39.644Z,59.56
2022-12-20T20:37:42.394Z,59.88
2022-12-20T20:40:44.994Z,60.04
2022-12-20T20:43:47.187Z,60.31
2022-12-20T20:46:49.085Z,60.40
2022-12-20T20:49:52.853Z,60.86
2022-12-20T20:52:54.762Z,60.81
2022-12-20T20:55:56.592Z,60.78
2022-12-20T20:59:04.989Z,60.90
2022-12-20T21:02:07.222Z,60.75
2022-12-20T21:06:06.184Z,61.06
2022-12-20T21:08:31.821Z,61.06
2022-12-20T21:11:33.997Z,61.34
2022-12-20T21:15:10.708Z,61.25
2022-12-20T21:17:57.826Z,61.27
2022-12-20T21:21:00.029Z,61.52
2022-12-20T21:24:02.048Z,61.15
2022-12-20T21:27:04.049Z,61.91
2022-12-20T21:30:06.648Z,61.73
2022-12-20T21:33:08.529Z,61.64
2022-12-20T21:36:13.972Z,62.14
2022-12-20T21:39:15.816Z,61.99
2022-12-20T21:42:18.248Z,61.64
2022-12-20T21:45:20.119Z,61.90
2022-12-20T21:48:22.816Z,61.98
2022-12-20T21:51:26.632Z,61.97
2022-12-20T21:54:28.493Z,62.23
2022-12-20T21:57:30.398Z,62.94
2022-12-20T22:00:32.278Z,63.38
2022-12-20T22:03:34.716Z,63.68
2022-12-20T22:06:36.734Z,64.36
2022-12-20T22:09:38.617Z,64.47
2022-12-20T22:12:40.437Z,64.72
2022-12-20T22:15:42.367Z,64.97
2022-12-20T22:18:45.152Z,64.97
2022-12-20T22:21:49.763Z,65.00
2022-12-20T22:24:55.682Z,64.97
2022-12-20T22:27:57.586Z,65.19
2022-12-20T22:30:59.412Z,65.57
2022-12-20T22:34:02.056Z,65.85
2022-12-20T22:37:04.009Z,66.38
2022-12-20T22:40:06.549Z,67.54
2022-12-20T22:43:08.674Z,67.38
2022-12-20T22:46:11.477Z,69.12
2022-12-20T22:49:17.633Z,69.70
2022-12-20T22:52:21.676Z,70.88
2022-12-20T22:55:23.555Z,71.19
2022-12-20T22:58:27.255Z,71.69
2022-12-20T23:01:29.305Z,72.53
2022-12-20T23:04:31.208Z,73.23
2022-12-20T23:07:33.217Z,73.28
2022-12-20T23:10:58.243Z,73.54
2022-12-20T23:14:18.975Z,73.41
2022-12-20T23:17:20.859Z,73.06
2022-12-20T23:20:41.416Z,73.03
2022-12-20T23:23:43.256Z,72.43
2022-12-20T23:26:45.117Z,72.10
2022-12-20T23:29:46.939Z,71.88
2022-12-20T23:32:49.594Z,72.11
2022-12-20T23:36:01.244Z,72.86
2022-12-20T23:39:04.049Z,73.52
2022-12-20T23:42:05.940Z,74.20
2022-12-20T23:45:08.682Z,74.71
2022-12-20T23:48:10.725Z,75.48
2022-12-20T23:51:12.778Z,75.98
2022-12-20T23:54:15.244Z,76.78
2022-12-20T23:57:17.097Z,77.48
